Portada
METAR-TAF:

METAR-TAF

Aeropuertos :

Aeropuerto Internacional Madre Teresa

Tirana, Albania

latitud: 41-20N, longitud: 019-47E, altitud: 89 m

Observación

El informe se hizo hace 23 minutos, a las 01:20 UTC
Viento 2 kt del norte
Temperatura 13°C
Humedad 94%
Presión 1009 hPa
Visibilidad 10 km o más
Escasas nubes a una altura de 9400 ft

METAR: LATI 030120Z 35002KT 9999 FEW094 13/12 Q1009 NOSIG

Hora: 03:43 (01:43 UTC)

Pronóstico

El informe se hizo hace 2 horas y 43 minutos, a las 23:00 UTC
Pronóstico válido del 03 a las 00 UTC al 03 a las 24 UTC
Viento 2 kt con dirección variable
Visibilidad 10 km o más
sin nubes por debajo de 1500 m y sin presencia de cumulonimbus.
Temporalmente
del 03 a las 10 UTC al 03 a las 17 UTC
Viento 12 kt del noroeste

TAF: LATI 022300Z 0300/0324 VRB02KT CAVOK TX26/0312Z TN10/0303Z TEMPO 0310/0317 32012KT

Observaciones y pronósticos meteorológicos de más de 4000 aeropuertos (mensajes METAR y TAF).

Los puntos amarillos y rojos representan las estaciones disponibles.

Ponga el ratón en el punto deseado para ver el nombre de la estación.

Haga clic para ver las observaciones y los pronósticos meteorológicos.

Para cambiar el mapa : haga clic en los botones verdes con una cruz de color negro para hacer un zoom, en el botón verde con un guión para alejar o en las flechas verdes para mapas adyacentes.


METAR-TAF: